createdAt,value
2023-05-05T00:02:10.764Z,39.42
2023-05-05T00:05:14.199Z,55.70
2023-05-05T00:08:18.192Z,35.05
2023-05-05T00:11:22.064Z,47.23
2023-05-05T00:14:26.878Z,35.22
2023-05-05T00:17:30.206Z,43.70
2023-05-05T00:20:33.430Z,47.40
2023-05-05T00:23:36.676Z,52.63
2023-05-05T00:26:39.804Z,39.13
2023-05-05T00:29:43.009Z,43.33
2023-05-05T00:32:49.277Z,50.95
2023-05-05T00:35:52.505Z,58.08
2023-05-05T00:38:55.755Z,47.55
2023-05-05T00:42:00.066Z,46.17
2023-05-05T00:45:03.256Z,47.83
2023-05-05T00:48:07.442Z,49.25
2023-05-05T00:51:11.022Z,49.05
2023-05-05T00:54:14.181Z,67.88
2023-05-05T00:57:17.947Z,46.10
2023-05-05T01:00:21.151Z,55.85
2023-05-05T01:03:24.370Z,45.90
2023-05-05T01:07:02.825Z,46.15
2023-05-05T01:10:20.352Z,47.72
2023-05-05T01:13:27.622Z,54.15
2023-05-05T01:16:35.221Z,43.20
2023-05-05T01:19:51.734Z,40.35
2023-05-05T01:23:00.354Z,49.80
2023-05-05T01:26:25.383Z,49.03
2023-05-05T01:29:42.197Z,57.07
2023-05-05T01:32:55.993Z,43.90
2023-05-05T01:36:11.370Z,38.45
2023-05-05T01:39:17.394Z,35.92
2023-05-05T01:42:23.160Z,30.58
2023-05-05T01:45:29.451Z,40.13
2023-05-05T01:48:34.089Z,37.55
2023-05-05T01:51:38.461Z,35.40
2023-05-05T01:54:43.176Z,30.48
2023-05-05T01:57:48.363Z,35.03
2023-05-05T02:00:53.894Z,35.60
2023-05-05T02:04:00.127Z,19.90
2023-05-05T02:07:05.716Z,12.63
2023-05-05T02:10:11.022Z,15.40
2023-05-05T02:13:16.137Z,4.65
2023-05-05T02:16:20.564Z,3.80
2023-05-05T02:19:30.001Z,3.58
2023-05-05T02:22:33.908Z,5.75
2023-05-05T02:25:42.035Z,11.82
2023-05-05T02:29:03.930Z,2.95
2023-05-05T02:32:12.448Z,5.97
2023-05-05T02:35:28.227Z,7.57
2023-05-05T02:38:32.802Z,4.50
2023-05-05T02:41:40.107Z,2.45
2023-05-05T02:44:51.696Z,2.15
2023-05-05T02:47:55.672Z,5.47
2023-05-05T02:50:59.722Z,4.07
2023-05-05T02:54:08.198Z,4.28
2023-05-05T02:57:15.417Z,2.60
2023-05-05T03:00:29.221Z,5.05
2023-05-05T03:03:41.721Z,2.25
2023-05-05T03:06:50.905Z,2.70
2023-05-05T03:10:05.015Z,8.98
2023-05-05T03:13:12.374Z,1.88
2023-05-05T03:16:20.223Z,4.28
2023-05-05T03:19:24.565Z,1.30
2023-05-05T03:22:36.408Z,2.67
2023-05-05T03:25:47.726Z,4.88
2023-05-05T03:28:59.364Z,3.03
2023-05-05T03:32:07.109Z,6.07
2023-05-05T03:35:10.735Z,7.55
2023-05-05T03:38:13.938Z,6.97
2023-05-05T03:41:18.622Z,2.95
2023-05-05T03:44:21.991Z,8.85
2023-05-05T03:47:25.429Z,3.22
2023-05-05T03:50:29.988Z,2.75
2023-05-05T03:53:33.191Z,3.10
2023-05-05T03:56:38.801Z,1.92
2023-05-05T03:59:42.033Z,1.95
2023-05-05T04:02:45.819Z,3.85
2023-05-05T04:05:52.175Z,4.50
2023-05-05T04:08:56.291Z,4.53
2023-05-05T04:11:59.551Z,1.92
2023-05-05T04:15:03.023Z,7.07
2023-05-05T04:18:06.579Z,6.63
2023-05-05T04:21:09.862Z,4.05
2023-05-05T04:24:13.930Z,10.65
2023-05-05T04:27:17.178Z,1.58
2023-05-05T04:30:21.096Z,5.35
2023-05-05T04:33:24.365Z,3.75
2023-05-05T04:36:28.134Z,7.00
2023-05-05T04:39:33.839Z,3.97
2023-05-05T04:42:38.299Z,12.38
2023-05-05T04:45:42.016Z,4.13
2023-05-05T04:48:45.781Z,7.53
2023-05-05T04:51:49.419Z,3.90
2023-05-05T04:54:52.662Z,3.45
2023-05-05T04:57:56.112Z,7.38
2023-05-05T05:01:00.113Z,4.97
2023-05-05T05:04:03.438Z,4.35
2023-05-05T05:07:06.651Z,3.28
2023-05-05T05:10:10.578Z,3.58
2023-05-05T05:13:13.941Z,8.20
2023-05-05T05:16:17.310Z,6.32
2023-05-05T05:19:21.282Z,2.05
2023-05-05T05:22:25.521Z,2.50
2023-05-05T05:25:29.325Z,6.30
2023-05-05T05:28:32.503Z,2.92
2023-05-05T05:31:37.417Z,2.17
2023-05-05T05:34:40.841Z,2.42
2023-05-05T05:37:46.566Z,2.80
2023-05-05T05:40:50.876Z,5.95
2023-05-05T05:43:54.285Z,3.10
2023-05-05T05:46:57.716Z,4.25
2023-05-05T05:50:01.468Z,4.93
2023-05-05T05:53:05.683Z,1.95
2023-05-05T05:56:09.599Z,5.82
2023-05-05T05:59:13.224Z,5.97
2023-05-05T06:02:17.953Z,2.35
2023-05-05T06:05:21.996Z,2.13
2023-05-05T06:08:28.179Z,4.72
2023-05-05T06:11:35.610Z,2.42
2023-05-05T06:14:38.951Z,6.28
2023-05-05T06:17:42.210Z,2.83
2023-05-05T06:20:45.556Z,3.22
2023-05-05T06:23:51.599Z,4.60
2023-05-05T06:26:55.193Z,9.23
2023-05-05T06:29:58.358Z,12.65
2023-05-05T06:33:01.637Z,3.47
2023-05-05T06:36:05.160Z,6.32
2023-05-05T06:39:08.439Z,4.80
2023-05-05T06:42:11.860Z,3.85
2023-05-05T06:45:15.132Z,6.30
2023-05-05T06:48:19.046Z,10.82
2023-05-05T06:51:23.386Z,3.80
2023-05-05T06:54:26.749Z,7.15
2023-05-05T06:57:29.901Z,9.63
2023-05-05T07:00:33.048Z,8.75
2023-05-05T07:03:36.512Z,3.53
2023-05-05T07:06:39.674Z,4.53
2023-05-05T07:09:42.940Z,6.10
2023-05-05T07:12:47.064Z,3.33
2023-05-05T07:15:50.489Z,8.02
2023-05-05T07:18:53.746Z,4.25
2023-05-05T07:21:56.872Z,4.07
2023-05-05T07:25:00.072Z,6.95
2023-05-05T07:28:03.357Z,5.05
2023-05-05T07:31:06.622Z,1.85
2023-05-05T07:34:09.746Z,4.38
2023-05-05T07:37:12.939Z,9.68
2023-05-05T07:40:16.407Z,1.52
2023-05-05T07:43:19.577Z,4.72
2023-05-05T07:46:22.694Z,2.90
2023-05-05T07:49:26.048Z,11.50
2023-05-05T07:52:44.176Z,6.05
2023-05-05T07:55:49.493Z,13.60
2023-05-05T07:58:52.601Z,11.93
2023-05-05T08:01:55.785Z,3.47
2023-05-05T08:04:58.948Z,2.28
2023-05-05T08:08:02.215Z,7.38
2023-05-05T08:11:07.080Z,5.95
2023-05-05T08:14:10.366Z,3.70
2023-05-05T08:17:13.541Z,11.82
2023-05-05T08:20:18.187Z,5.07
2023-05-05T08:26:25.412Z,15.05
2023-05-05T08:29:28.731Z,11.40
2023-05-05T08:32:32.908Z,10.57
2023-05-05T08:35:36.204Z,8.25
2023-05-05T08:38:40.530Z,6.78
2023-05-05T08:41:43.861Z,13.43
2023-05-05T08:44:47.150Z,5.65
2023-05-05T08:47:50.372Z,3.00
2023-05-05T08:51:00.360Z,3.28
2023-05-05T08:54:07.781Z,3.13
2023-05-05T08:57:11.957Z,1.50
2023-05-05T09:00:18.645Z,5.63
2023-05-05T09:03:22.159Z,7.80
2023-05-05T09:06:27.573Z,4.03
2023-05-05T09:09:31.736Z,4.35
2023-05-05T09:12:35.252Z,2.78
2023-05-05T09:15:39.629Z,2.88
2023-05-05T09:18:43.402Z,6.65
2023-05-05T09:21:50.289Z,3.83
2023-05-05T09:24:57.499Z,5.45
2023-05-05T09:28:10.559Z,3.92
2023-05-05T09:31:16.892Z,4.57
2023-05-05T09:34:20.105Z,7.63
2023-05-05T09:37:32.574Z,6.60
2023-05-05T09:40:49.681Z,3.58
2023-05-05T09:43:53.441Z,1.80
2023-05-05T09:46:58.896Z,3.58
2023-05-05T09:50:02.588Z,4.53
2023-05-05T09:53:05.759Z,3.60
2023-05-05T09:56:09.280Z,20.33
2023-05-05T09:59:12.895Z,30.95
2023-05-05T10:02:16.275Z,8.50
2023-05-05T10:05:20.233Z,12.68
2023-05-05T10:08:41.844Z,30.27
2023-05-05T10:11:48.126Z,33.30
2023-05-05T10:14:57.372Z,18.95
2023-05-05T10:18:07.455Z,17.13
2023-05-05T10:21:13.449Z,14.38
2023-05-05T10:24:28.102Z,15.38
2023-05-05T10:27:38.186Z,14.40
2023-05-05T10:30:47.164Z,9.93
2023-05-05T10:34:06.748Z,9.73
2023-05-05T10:37:12.299Z,9.68
2023-05-05T10:40:16.778Z,140.98
2023-05-05T10:43:20.363Z,17.08
2023-05-05T10:46:24.388Z,11.90
2023-05-05T10:49:46.083Z,12.35
2023-05-05T10:52:59.582Z,14.95
2023-05-05T10:56:19.412Z,9.73
2023-05-05T10:59:37.952Z,9.30
2023-05-05T11:02:42.561Z,5.35
2023-05-05T11:06:06.588Z,8.02
2023-05-05T11:09:42.776Z,8.23
2023-05-05T11:13:03.228Z,38.17
2023-05-05T11:16:27.059Z,18.48
2023-05-05T11:19:45.925Z,11.70
2023-05-05T11:23:05.195Z,11.25
2023-05-05T11:26:09.734Z,15.63
2023-05-05T11:29:12.952Z,15.52
2023-05-05T11:32:16.684Z,13.43
2023-05-05T11:35:20.114Z,12.77
2023-05-05T11:38:30.950Z,11.80
2023-05-05T11:41:34.136Z,20.23
2023-05-05T11:44:37.545Z,20.88
2023-05-05T11:47:40.799Z,23.35
2023-05-05T11:50:44.298Z,23.27
2023-05-05T11:53:52.536Z,22.80
2023-05-05T11:56:59.756Z,22.10
2023-05-05T12:00:08.211Z,18.58
2023-05-05T12:03:12.779Z,33.65
2023-05-05T12:06:16.185Z,13.55
2023-05-05T12:09:21.308Z,19.20
2023-05-05T12:12:43.693Z,14.40
2023-05-05T12:15:47.248Z,21.23
2023-05-05T12:19:11.123Z,19.23
2023-05-05T12:22:22.138Z,9.15
2023-05-05T12:25:25.439Z,11.20
2023-05-05T12:28:46.012Z,11.30
2023-05-05T12:31:49.439Z,13.63
2023-05-05T12:35:01.376Z,14.48
2023-05-05T12:38:18.637Z,33.60
2023-05-05T12:41:35.200Z,16.95
2023-05-05T12:44:42.565Z,18.50
2023-05-05T12:47:48.903Z,27.08
2023-05-05T12:50:53.198Z,13.98
2023-05-05T12:57:29.890Z,14.43
2023-05-05T13:00:37.989Z,17.13
2023-05-05T13:03:45.592Z,13.77
2023-05-05T13:06:59.215Z,26.83
2023-05-05T13:10:12.536Z,31.23
2023-05-05T13:13:18.710Z,23.77
2023-05-05T13:16:52.201Z,29.88
2023-05-05T13:19:55.877Z,24.90
2023-05-05T13:23:03.521Z,27.60
2023-05-05T13:26:07.645Z,21.30
2023-05-05T13:29:11.665Z,21.57
2023-05-05T13:32:15.449Z,17.43
2023-05-05T13:35:19.368Z,21.58
2023-05-05T13:38:22.570Z,15.73
2023-05-05T13:41:26.744Z,20.15
2023-05-05T13:44:30.172Z,15.50
2023-05-05T13:47:33.322Z,10.75
2023-05-05T13:50:36.622Z,14.73
2023-05-05T13:53:44.363Z,17.45
2023-05-05T13:56:47.615Z,14.68
2023-05-05T13:59:50.859Z,18.77
2023-05-05T14:02:56.691Z,9.57
2023-05-05T14:06:00.717Z,11.55
2023-05-05T14:09:06.657Z,25.83
2023-05-05T14:12:09.812Z,13.65
2023-05-05T14:15:13.155Z,13.38
2023-05-05T14:18:16.304Z,10.32
2023-05-05T14:21:22.278Z,20.60
2023-05-05T14:24:25.555Z,10.98
2023-05-05T14:27:31.428Z,21.48
2023-05-05T14:30:34.650Z,13.73
2023-05-05T14:33:37.879Z,9.88
2023-05-05T14:36:41.928Z,13.55
2023-05-05T14:39:45.119Z,14.10
2023-05-05T14:42:51.852Z,15.40
2023-05-05T14:45:55.178Z,14.10
2023-05-05T14:48:59.469Z,14.98
2023-05-05T14:52:02.944Z,15.27
2023-05-05T14:55:06.738Z,8.93
2023-05-05T14:58:09.910Z,16.33
2023-05-05T15:01:13.349Z,12.05
2023-05-05T15:04:17.613Z,17.65
2023-05-05T15:07:21.991Z,14.63
2023-05-05T15:10:25.285Z,16.67
2023-05-05T15:13:28.516Z,22.90
2023-05-05T15:16:33.773Z,18.80
2023-05-05T15:19:38.177Z,18.00
2023-05-05T15:22:41.625Z,22.73
2023-05-05T15:25:44.806Z,14.75
2023-05-05T15:28:49.745Z,17.75
2023-05-05T15:31:53.505Z,20.67
2023-05-05T15:34:57.024Z,16.25
2023-05-05T15:38:00.270Z,16.83
2023-05-05T15:41:03.428Z,16.75
2023-05-05T15:44:06.821Z,16.90
2023-05-05T15:47:11.580Z,15.00
2023-05-05T15:50:15.016Z,10.05
2023-05-05T15:53:18.239Z,11.93
2023-05-05T15:56:21.423Z,9.80
2023-05-05T15:59:24.582Z,15.85
2023-05-05T16:02:27.989Z,15.25
2023-05-05T16:05:31.275Z,11.70
2023-05-05T16:08:35.505Z,11.80
2023-05-05T16:11:38.660Z,12.07
2023-05-05T16:14:41.886Z,11.73
2023-05-05T16:17:45.157Z,11.77
2023-05-05T16:20:48.485Z,43.47
2023-05-05T16:23:51.785Z,16.35
2023-05-05T16:26:55.065Z,13.60
2023-05-05T16:29:59.722Z,12.75
2023-05-05T16:33:03.135Z,13.65
2023-05-05T16:36:06.661Z,21.30
2023-05-05T16:39:09.827Z,14.10
2023-05-05T16:42:13.902Z,8.70
2023-05-05T16:45:17.193Z,11.68
2023-05-05T16:48:20.783Z,11.27
2023-05-05T16:51:24.290Z,5.82
2023-05-05T16:54:27.457Z,10.13
2023-05-05T16:57:30.728Z,9.85
2023-05-05T17:00:33.985Z,8.68
2023-05-05T17:03:37.156Z,6.00
2023-05-05T17:06:40.482Z,6.60
2023-05-05T17:09:43.703Z,5.50
2023-05-05T17:12:46.995Z,4.88
2023-05-05T17:15:50.306Z,5.53
2023-05-05T17:18:55.290Z,6.22
2023-05-05T17:25:01.383Z,5.00
2023-05-05T17:28:04.632Z,7.03
2023-05-05T17:31:07.832Z,8.43
2023-05-05T17:34:11.256Z,7.20
2023-05-05T17:37:14.493Z,8.70
2023-05-05T17:40:17.663Z,8.95
2023-05-05T17:43:20.972Z,10.18
2023-05-05T17:46:24.152Z,9.57
2023-05-05T17:49:27.466Z,12.10
2023-05-05T17:52:30.705Z,18.42
2023-05-05T17:55:33.929Z,9.38
2023-05-05T17:58:37.080Z,10.40
2023-05-05T18:01:40.316Z,10.85
2023-05-05T18:04:44.060Z,7.75
2023-05-05T18:07:47.397Z,14.48
2023-05-05T18:10:50.495Z,8.73
2023-05-05T18:13:53.740Z,8.75
2023-05-05T18:16:56.948Z,14.68
2023-05-05T18:20:00.112Z,14.13
2023-05-05T18:23:03.268Z,6.88
2023-05-05T18:26:06.961Z,8.20
2023-05-05T18:29:10.368Z,12.10
2023-05-05T18:32:13.499Z,15.18
2023-05-05T18:35:16.828Z,10.40
2023-05-05T18:38:20.262Z,8.18
2023-05-05T18:41:23.410Z,10.00
2023-05-05T18:44:26.663Z,8.80
2023-05-05T18:47:30.004Z,9.73
2023-05-05T18:50:33.926Z,9.60
2023-05-05T18:53:37.109Z,9.15
2023-05-05T18:56:40.571Z,8.50
2023-05-05T18:59:43.674Z,11.18
2023-05-05T19:02:47.114Z,6.97
2023-05-05T19:05:50.428Z,9.82
2023-05-05T19:08:53.656Z,9.43
2023-05-05T19:11:56.940Z,8.52
2023-05-05T19:15:00.184Z,6.30
2023-05-05T19:18:03.396Z,11.25
2023-05-05T19:21:06.611Z,9.85
2023-05-05T19:24:10.491Z,7.82
2023-05-05T19:27:16.361Z,7.53
2023-05-05T19:30:20.074Z,8.90
2023-05-05T19:33:23.730Z,6.57
2023-05-05T19:36:26.958Z,7.53
2023-05-05T19:39:30.109Z,10.05
2023-05-05T19:42:33.336Z,4.25
2023-05-05T19:45:36.537Z,10.88
2023-05-05T19:48:39.812Z,5.32
2023-05-05T19:51:43.402Z,9.75
2023-05-05T19:54:46.775Z,8.85
2023-05-05T19:57:49.910Z,7.50
2023-05-05T20:00:53.013Z,6.55
2023-05-05T20:03:57.292Z,8.70
2023-05-05T20:07:00.644Z,7.00
2023-05-05T20:10:03.827Z,5.63
2023-05-05T20:13:07.065Z,4.22
2023-05-05T20:16:10.396Z,8.48
2023-05-05T20:19:13.730Z,8.82
2023-05-05T20:22:21.142Z,3.50
2023-05-05T20:25:27.537Z,9.15
2023-05-05T20:28:32.288Z,11.98
2023-05-05T20:31:35.660Z,5.53
2023-05-05T20:34:39.847Z,11.85
2023-05-05T20:37:43.221Z,9.35
2023-05-05T20:40:46.427Z,10.70
2023-05-05T20:43:49.599Z,7.68
2023-05-05T20:46:52.858Z,8.98
2023-05-05T20:49:56.077Z,12.30
2023-05-05T20:52:59.792Z,9.05
2023-05-05T20:56:02.989Z,6.50
2023-05-05T20:59:06.768Z,9.25
2023-05-05T21:02:10.081Z,5.85
2023-05-05T21:05:13.332Z,5.20
2023-05-05T21:08:16.733Z,8.07
2023-05-05T21:11:19.865Z,5.97
2023-05-05T21:14:23.824Z,7.93
2023-05-05T21:17:30.419Z,6.23
2023-05-05T21:20:33.602Z,5.10
2023-05-05T21:23:36.861Z,14.82
2023-05-05T21:26:46.582Z,4.88
2023-05-05T21:29:51.896Z,6.72
2023-05-05T21:32:54.999Z,7.65
2023-05-05T21:35:58.329Z,7.20
2023-05-05T21:39:01.614Z,4.93
2023-05-05T21:42:04.972Z,5.55
2023-05-05T21:45:08.676Z,11.85
2023-05-05T21:48:14.554Z,7.18
2023-05-05T21:51:18.123Z,12.10
2023-05-05T21:54:21.219Z,13.80
2023-05-05T21:57:24.569Z,7.50
2023-05-05T22:00:27.961Z,9.65
2023-05-05T22:03:31.265Z,8.45
2023-05-05T22:06:34.552Z,17.05
2023-05-05T22:09:38.017Z,21.00
2023-05-05T22:12:41.733Z,14.18
2023-05-05T22:15:47.261Z,13.18
2023-05-05T22:18:51.204Z,15.60
2023-05-05T22:21:55.412Z,25.50
2023-05-05T22:24:58.626Z,9.18
2023-05-05T22:28:01.846Z,8.85
2023-05-05T22:31:05.463Z,11.95
2023-05-05T22:34:09.097Z,9.77
2023-05-05T22:37:12.226Z,12.40
2023-05-05T22:40:15.444Z,9.75
2023-05-05T22:43:18.547Z,12.15
2023-05-05T22:46:21.842Z,9.88
2023-05-05T22:49:25.051Z,10.38
2023-05-05T22:52:29.659Z,15.53
2023-05-05T22:58:35.736Z,25.92
2023-05-05T23:01:38.950Z,52.92
2023-05-05T23:04:42.480Z,10.87
2023-05-05T23:07:45.868Z,14.20
2023-05-05T23:10:49.116Z,15.73
2023-05-05T23:13:52.286Z,16.13
2023-05-05T23:16:55.523Z,13.27
2023-05-05T23:19:58.844Z,15.00
2023-05-05T23:23:02.012Z,12.43
2023-05-05T23:26:05.498Z,18.20
2023-05-05T23:29:08.756Z,15.07
2023-05-05T23:32:12.003Z,12.48
2023-05-05T23:35:15.235Z,11.02
2023-05-05T23:38:18.433Z,11.85
2023-05-05T23:41:21.685Z,8.88
2023-05-05T23:44:24.997Z,10.07
2023-05-05T23:47:28.264Z,10.75
2023-05-05T23:50:31.584Z,7.95
2023-05-05T23:53:34.784Z,15.00
2023-05-05T23:56:38.140Z,7.97
2023-05-05T23:59:41.323Z,9.43
